createdAt,value
2023-10-26T00:00:38.617Z,21.96
2023-10-26T00:03:05.384Z,21.96
2023-10-26T00:05:32.201Z,21.94
2023-10-26T00:07:59.007Z,21.94
2023-10-26T00:10:25.916Z,21.94
2023-10-26T00:12:52.642Z,21.93
2023-10-26T00:15:19.634Z,21.92
2023-10-26T00:17:46.567Z,21.91
2023-10-26T00:20:13.622Z,21.91
2023-10-26T00:22:40.328Z,21.91
2023-10-26T00:25:07.666Z,21.91
2023-10-26T00:27:34.918Z,21.90
2023-10-26T00:30:01.700Z,21.90
2023-10-26T00:32:28.473Z,21.89
2023-10-26T00:34:55.284Z,21.88
2023-10-26T00:37:21.968Z,21.88
2023-10-26T00:39:48.564Z,21.87
2023-10-26T00:42:15.400Z,21.87
2023-10-26T00:44:42.322Z,21.87
2023-10-26T00:47:09.527Z,21.86
2023-10-26T00:49:36.216Z,21.86
2023-10-26T00:52:03.625Z,21.85
2023-10-26T00:54:30.331Z,21.84
2023-10-26T00:56:57.030Z,21.84
2023-10-26T00:59:23.783Z,21.84
2023-10-26T01:01:50.481Z,21.83
2023-10-26T01:04:17.203Z,21.83
2023-10-26T01:06:44.377Z,21.82
2023-10-26T01:09:11.623Z,21.81
2023-10-26T01:11:38.807Z,21.80
2023-10-26T01:14:06.401Z,21.80
2023-10-26T01:16:33.114Z,21.78
2023-10-26T01:19:00.675Z,21.79
2023-10-26T01:21:28.902Z,21.79
2023-10-26T01:23:55.762Z,21.77
2023-10-26T01:26:22.375Z,21.77
2023-10-26T01:28:49.006Z,21.75
2023-10-26T01:31:18.912Z,21.76
2023-10-26T01:33:46.361Z,21.75
2023-10-26T01:36:13.129Z,21.73
2023-10-26T01:38:39.861Z,21.73
2023-10-26T01:41:06.593Z,21.70
2023-10-26T01:43:33.236Z,21.71
2023-10-26T01:45:59.866Z,21.70
2023-10-26T01:48:27.223Z,21.69
2023-10-26T01:50:54.625Z,21.69
2023-10-26T01:53:24.789Z,21.68
2023-10-26T01:55:51.484Z,21.67
2023-10-26T01:58:18.084Z,21.65
2023-10-26T02:00:44.843Z,21.64
2023-10-26T02:03:11.547Z,21.65
2023-10-26T02:05:38.431Z,21.63
2023-10-26T02:08:05.281Z,21.63
2023-10-26T02:10:31.963Z,21.62
2023-10-26T02:12:58.708Z,21.60
2023-10-26T02:15:25.455Z,21.61
2023-10-26T02:17:52.268Z,21.59
2023-10-26T02:20:18.897Z,21.58
2023-10-26T02:22:45.517Z,21.58
2023-10-26T02:25:12.237Z,21.58
2023-10-26T02:27:38.929Z,21.57
2023-10-26T02:30:06.364Z,21.56
2023-10-26T02:32:33.397Z,21.56
2023-10-26T02:35:00.160Z,21.55
2023-10-26T02:37:26.940Z,21.54
2023-10-26T02:39:53.677Z,21.55
2023-10-26T02:42:20.332Z,21.55
2023-10-26T02:44:47.029Z,21.53
2023-10-26T02:47:13.746Z,21.53
2023-10-26T02:49:40.444Z,21.52
2023-10-26T02:52:07.217Z,21.52
2023-10-26T02:54:33.908Z,21.52
2023-10-26T02:57:00.562Z,21.50
2023-10-26T02:59:27.189Z,21.51
2023-10-26T03:01:53.955Z,21.50
2023-10-26T03:04:20.657Z,21.50
2023-10-26T03:06:47.506Z,21.50
2023-10-26T03:09:14.804Z,21.49
2023-10-26T03:11:42.456Z,21.48
2023-10-26T03:14:09.165Z,21.48
2023-10-26T03:16:35.938Z,21.49
2023-10-26T03:19:03.137Z,21.48
2023-10-26T03:21:30.039Z,21.46
2023-10-26T03:23:56.759Z,21.45
2023-10-26T03:26:26.065Z,21.46
2023-10-26T03:28:53.406Z,21.45
2023-10-26T03:31:20.200Z,21.45
2023-10-26T03:33:46.980Z,21.45
2023-10-26T03:36:17.874Z,21.42
2023-10-26T03:38:45.107Z,21.43
2023-10-26T03:41:11.896Z,21.42
2023-10-26T03:43:38.571Z,21.43
2023-10-26T03:46:08.259Z,21.41
2023-10-26T03:48:35.566Z,21.41
2023-10-26T03:51:03.099Z,21.40
2023-10-26T03:53:29.891Z,21.41
2023-10-26T03:55:56.797Z,21.40
2023-10-26T03:58:23.492Z,21.40
2023-10-26T04:00:52.419Z,21.40
2023-10-26T04:03:19.260Z,21.39
2023-10-26T04:05:45.969Z,21.38
2023-10-26T04:08:13.534Z,21.38
2023-10-26T04:10:42.100Z,21.37
2023-10-26T04:13:08.771Z,21.37
2023-10-26T04:15:35.534Z,21.36
2023-10-26T04:18:05.255Z,21.36
2023-10-26T04:20:31.970Z,21.37
2023-10-26T04:22:58.860Z,21.36
2023-10-26T04:25:42.279Z,21.35
2023-10-26T04:28:16.825Z,21.34
2023-10-26T04:30:48.158Z,21.32
2023-10-26T04:33:15.717Z,21.32
2023-10-26T04:35:45.808Z,21.32
2023-10-26T04:38:12.574Z,21.31
2023-10-26T04:40:39.991Z,21.30
2023-10-26T04:43:15.936Z,21.29
2023-10-26T04:45:42.647Z,21.30
2023-10-26T04:48:09.370Z,21.29
2023-10-26T04:50:36.036Z,21.28
2023-10-26T04:53:03.771Z,21.28
2023-10-26T04:55:36.285Z,21.26
2023-10-26T04:58:03.528Z,21.27
2023-10-26T05:00:31.041Z,21.26
2023-10-26T05:03:01.431Z,21.25
2023-10-26T05:05:28.192Z,21.25
2023-10-26T05:07:54.973Z,21.25
2023-10-26T05:10:21.836Z,21.28
2023-10-26T05:12:48.449Z,21.35
2023-10-26T05:15:15.195Z,21.46
2023-10-26T05:17:41.926Z,21.63
2023-10-26T05:20:09.482Z,21.78
2023-10-26T05:22:36.192Z,21.96
2023-10-26T05:25:05.593Z,22.14
2023-10-26T05:27:37.264Z,22.37
2023-10-26T05:30:06.007Z,22.60
2023-10-26T05:32:32.719Z,22.83
2023-10-26T05:34:59.552Z,23.00
2023-10-26T05:37:26.237Z,23.15
2023-10-26T05:39:55.462Z,23.28
2023-10-26T05:42:22.222Z,23.37
2023-10-26T05:44:48.923Z,23.44
2023-10-26T05:47:20.033Z,23.49
2023-10-26T05:49:47.958Z,23.54
2023-10-26T05:52:14.652Z,23.56
2023-10-26T05:54:41.375Z,23.58
2023-10-26T05:57:08.820Z,23.61
2023-10-26T05:59:36.830Z,23.61
2023-10-26T06:02:03.615Z,23.65
2023-10-26T06:04:30.399Z,23.63
2023-10-26T06:06:57.046Z,23.59
2023-10-26T06:09:25.310Z,23.59
2023-10-26T06:11:52.784Z,23.55
2023-10-26T06:14:19.427Z,23.59
2023-10-26T06:16:46.354Z,23.59
2023-10-26T06:19:12.987Z,23.50
2023-10-26T06:21:40.125Z,23.37
2023-10-26T06:24:16.164Z,23.28
2023-10-26T06:26:42.816Z,23.22
2023-10-26T06:29:09.552Z,23.14
2023-10-26T06:31:39.260Z,23.06
2023-10-26T06:34:06.634Z,23.09
2023-10-26T06:36:34.413Z,23.12
2023-10-26T06:39:01.290Z,23.19
2023-10-26T06:41:30.750Z,23.24
2023-10-26T06:43:57.397Z,23.31
2023-10-26T06:46:24.860Z,23.37
2023-10-26T06:48:53.759Z,23.41
2023-10-26T06:51:20.596Z,23.44
2023-10-26T06:53:47.247Z,23.51
2023-10-26T06:56:13.978Z,23.55
2023-10-26T06:58:41.291Z,23.62
2023-10-26T07:01:19.595Z,23.70
2023-10-26T07:03:49.161Z,23.68
2023-10-26T07:06:15.851Z,23.72
2023-10-26T07:08:42.494Z,23.70
2023-10-26T07:11:09.287Z,23.71
2023-10-26T07:13:35.906Z,23.66
2023-10-26T07:16:03.172Z,23.60
2023-10-26T07:18:30.796Z,23.54
2023-10-26T07:20:58.398Z,23.47
2023-10-26T07:23:25.049Z,23.42
2023-10-26T07:25:51.715Z,23.41
2023-10-26T07:28:18.525Z,23.39
2023-10-26T07:30:52.217Z,23.39
2023-10-26T07:33:22.853Z,23.36
2023-10-26T07:35:51.823Z,23.34
2023-10-26T07:38:35.160Z,23.30
2023-10-26T07:41:04.601Z,23.26
2023-10-26T07:43:31.333Z,23.20
2023-10-26T07:45:58.130Z,23.16
2023-10-26T07:48:24.887Z,23.13
2023-10-26T07:50:52.365Z,23.11
2023-10-26T07:53:19.024Z,23.09
2023-10-26T07:55:45.952Z,23.05
2023-10-26T07:58:12.596Z,23.00
2023-10-26T08:00:39.290Z,22.98
2023-10-26T08:03:05.995Z,22.93
2023-10-26T08:05:32.784Z,22.92
2023-10-26T08:07:59.487Z,22.89
2023-10-26T08:10:27.395Z,22.91
2023-10-26T08:12:54.326Z,22.90
2023-10-26T08:16:11.324Z,22.88
2023-10-26T08:18:10.840Z,22.88
2023-10-26T08:20:37.640Z,22.88
2023-10-26T08:23:04.580Z,22.87
2023-10-26T08:25:35.157Z,22.84
2023-10-26T08:28:01.767Z,22.81
2023-10-26T08:30:28.433Z,22.80
2023-10-26T08:32:57.476Z,22.79
2023-10-26T08:35:24.699Z,22.78
2023-10-26T08:37:51.454Z,22.75
2023-10-26T08:40:20.873Z,22.73
2023-10-26T08:42:47.767Z,22.72
2023-10-26T08:45:25.160Z,22.72
2023-10-26T08:47:52.202Z,22.71
2023-10-26T08:50:22.623Z,22.70
2023-10-26T08:52:49.831Z,22.68
2023-10-26T08:55:16.929Z,22.66
2023-10-26T08:57:51.604Z,22.67
2023-10-26T09:00:18.585Z,22.68
2023-10-26T09:02:46.571Z,22.67
2023-10-26T09:05:13.650Z,22.68
2023-10-26T09:07:40.447Z,22.72
2023-10-26T09:10:07.722Z,22.73
2023-10-26T09:12:34.882Z,22.78
2023-10-26T09:15:07.534Z,22.79
2023-10-26T09:17:37.046Z,22.80
2023-10-26T09:20:18.463Z,22.78
2023-10-26T09:22:45.227Z,22.70
2023-10-26T09:25:13.800Z,22.68
2023-10-26T09:27:41.517Z,22.69
2023-10-26T09:30:23.769Z,22.73
2023-10-26T09:32:50.883Z,22.73
2023-10-26T09:35:27.773Z,22.89
2023-10-26T09:37:54.672Z,23.15
2023-10-26T09:40:22.187Z,23.36
2023-10-26T09:42:51.960Z,23.49
2023-10-26T09:45:19.618Z,23.64
2023-10-26T09:47:47.091Z,23.73
2023-10-26T09:50:15.104Z,23.79
2023-10-26T09:52:43.461Z,23.87
2023-10-26T09:55:11.782Z,23.93
2023-10-26T09:58:00.687Z,24.01
2023-10-26T10:00:34.904Z,24.01
2023-10-26T10:03:17.833Z,24.05
2023-10-26T10:05:46.350Z,24.11
2023-10-26T10:08:13.503Z,24.10
2023-10-26T10:11:18.531Z,24.09
2023-10-26T10:13:45.496Z,24.14
2023-10-26T10:16:37.470Z,24.16
2023-10-26T10:19:21.002Z,24.15
2023-10-26T10:21:52.754Z,24.17
2023-10-26T10:24:45.990Z,24.15
2023-10-26T10:27:14.116Z,24.12
2023-10-26T10:29:40.918Z,24.08
2023-10-26T10:32:08.621Z,24.05
2023-10-26T10:34:43.709Z,24.02
2023-10-26T10:37:11.441Z,24.00
2023-10-26T10:39:38.584Z,24.00
2023-10-26T10:42:09.883Z,23.98
2023-10-26T10:44:37.496Z,23.95
2023-10-26T10:47:04.136Z,23.89
2023-10-26T10:49:30.970Z,23.85
2023-10-26T10:51:58.282Z,23.80
2023-10-26T10:54:40.411Z,23.76
2023-10-26T10:57:11.658Z,23.73
2023-10-26T10:59:38.295Z,23.70
2023-10-26T11:02:11.674Z,23.66
2023-10-26T11:05:09.180Z,23.64
2023-10-26T11:07:42.828Z,23.61
2023-10-26T11:10:09.739Z,23.56
2023-10-26T11:12:36.434Z,23.52
2023-10-26T11:15:05.029Z,23.49
2023-10-26T11:17:31.759Z,23.46
2023-10-26T11:19:58.431Z,23.46
2023-10-26T11:22:25.103Z,23.46
2023-10-26T11:24:51.894Z,23.44
2023-10-26T11:27:20.020Z,23.42
2023-10-26T11:30:00.356Z,23.39
2023-10-26T11:32:27.050Z,23.38
2023-10-26T11:35:14.793Z,23.36
2023-10-26T11:37:45.881Z,23.35
2023-10-26T11:40:13.599Z,23.33
2023-10-26T11:42:49.584Z,23.31
2023-10-26T11:45:16.711Z,23.28
2023-10-26T11:47:50.543Z,23.27
2023-10-26T11:50:24.486Z,23.24
2023-10-26T11:52:52.213Z,23.23
2023-10-26T11:55:19.311Z,23.21
2023-10-26T11:57:46.819Z,23.20
2023-10-26T12:00:14.333Z,23.22
2023-10-26T12:02:41.108Z,23.21
2023-10-26T12:05:08.363Z,23.17
2023-10-26T12:07:35.248Z,23.16
2023-10-26T12:10:06.287Z,23.14
2023-10-26T12:12:35.793Z,23.15
2023-10-26T12:15:02.518Z,23.16
2023-10-26T12:17:29.182Z,23.18
2023-10-26T12:19:55.983Z,23.18
2023-10-26T12:22:22.628Z,23.17
2023-10-26T12:24:49.354Z,23.16
2023-10-26T12:27:17.672Z,23.17
2023-10-26T12:29:44.932Z,23.16
2023-10-26T12:32:12.273Z,23.16
2023-10-26T12:34:40.577Z,23.15
2023-10-26T12:37:10.056Z,23.13
2023-10-26T12:39:36.712Z,23.13
2023-10-26T12:42:03.556Z,23.14
2023-10-26T12:44:30.263Z,23.12
2023-10-26T12:46:57.055Z,23.11
2023-10-26T12:49:23.909Z,23.11
2023-10-26T12:51:51.095Z,23.09
2023-10-26T12:54:17.957Z,23.09
2023-10-26T12:56:44.605Z,23.08
2023-10-26T12:59:14.466Z,23.07
2023-10-26T13:01:41.200Z,23.07
2023-10-26T13:04:08.007Z,23.07
2023-10-26T13:06:34.727Z,23.05
2023-10-26T13:09:04.727Z,23.04
2023-10-26T13:11:31.878Z,23.05
2023-10-26T13:13:58.548Z,23.02
2023-10-26T13:16:25.349Z,22.98
2023-10-26T13:18:54.507Z,22.97
2023-10-26T13:21:21.156Z,22.98
2023-10-26T13:23:48.300Z,22.99
2023-10-26T13:26:15.080Z,22.98
2023-10-26T13:28:41.781Z,22.95
2023-10-26T13:31:08.537Z,22.94
2023-10-26T13:33:38.643Z,22.94
2023-10-26T13:36:05.420Z,22.94
2023-10-26T13:38:32.041Z,22.95
2023-10-26T13:40:58.696Z,22.97
2023-10-26T13:43:25.303Z,22.98
2023-10-26T13:45:51.979Z,23.02
2023-10-26T13:48:18.784Z,23.05
2023-10-26T13:50:48.487Z,23.07
2023-10-26T13:53:15.827Z,23.13
2023-10-26T13:55:42.536Z,23.16
2023-10-26T13:58:09.207Z,23.18
2023-10-26T14:00:38.998Z,23.20
2023-10-26T14:03:05.938Z,23.23
2023-10-26T14:05:32.895Z,23.25
2023-10-26T14:07:59.652Z,23.27
2023-10-26T14:10:26.648Z,23.29
2023-10-26T14:12:53.354Z,23.31
2023-10-26T14:15:20.247Z,23.34
2023-10-26T14:17:46.979Z,23.33
2023-10-26T14:20:13.721Z,23.37
2023-10-26T14:22:40.352Z,23.37
2023-10-26T14:25:10.125Z,23.38
2023-10-26T14:27:36.860Z,23.39
2023-10-26T14:30:04.059Z,23.39
2023-10-26T14:32:30.696Z,23.40
2023-10-26T14:34:59.486Z,23.40
2023-10-26T14:37:26.188Z,23.40
2023-10-26T14:39:56.369Z,23.41
2023-10-26T14:42:23.397Z,23.41
2023-10-26T14:44:50.454Z,23.40
2023-10-26T14:47:17.107Z,23.42
2023-10-26T14:49:46.686Z,23.41
2023-10-26T14:52:13.515Z,23.40
2023-10-26T14:54:40.211Z,23.40
2023-10-26T14:57:06.995Z,23.39
2023-10-26T14:59:41.749Z,23.39
2023-10-26T15:02:08.486Z,23.38
2023-10-26T15:04:35.708Z,23.38
2023-10-26T15:07:02.534Z,23.39
2023-10-26T15:10:24.285Z,23.38
2023-10-26T15:12:19.866Z,23.36
2023-10-26T15:14:46.615Z,23.35
2023-10-26T15:17:14.176Z,23.35
2023-10-26T15:19:41.276Z,23.34
2023-10-26T15:22:07.986Z,23.33
2023-10-26T15:24:35.141Z,23.32
2023-10-26T15:27:01.962Z,23.30
2023-10-26T15:29:28.932Z,23.28
2023-10-26T15:31:55.681Z,23.25
2023-10-26T15:34:22.393Z,23.24
2023-10-26T15:36:49.109Z,23.24
2023-10-26T15:39:17.111Z,23.21
2023-10-26T15:41:44.103Z,23.18
2023-10-26T15:44:10.775Z,23.19
2023-10-26T15:46:37.542Z,23.17
2023-10-26T15:49:34.210Z,23.15
2023-10-26T15:51:56.720Z,23.13
2023-10-26T15:54:25.152Z,23.11
2023-10-26T15:56:51.837Z,23.09
2023-10-26T15:59:18.506Z,23.07
2023-10-26T16:01:53.939Z,23.05
2023-10-26T16:04:25.588Z,23.02
2023-10-26T16:06:58.567Z,22.99
2023-10-26T16:09:29.605Z,22.98
2023-10-26T16:11:56.481Z,22.95
2023-10-26T16:14:23.279Z,22.95
2023-10-26T16:16:49.996Z,22.93
2023-10-26T16:19:16.959Z,22.91
2023-10-26T16:21:43.820Z,22.90
2023-10-26T16:24:11.105Z,22.87
2023-10-26T16:26:37.825Z,22.87
2023-10-26T16:29:04.714Z,22.85
2023-10-26T16:31:31.425Z,22.85
2023-10-26T16:33:58.151Z,22.82
2023-10-26T16:36:25.716Z,22.81
2023-10-26T16:38:52.548Z,22.80
2023-10-26T16:41:19.309Z,22.78
2023-10-26T16:43:46.388Z,22.78
2023-10-26T16:46:16.010Z,22.75
2023-10-26T16:48:45.777Z,22.75
2023-10-26T16:51:12.525Z,22.73
2023-10-26T16:53:41.581Z,22.73
2023-10-26T16:56:09.560Z,22.71
2023-10-26T16:58:36.321Z,22.69
2023-10-26T17:01:12.540Z,22.69
2023-10-26T17:03:39.625Z,22.68
2023-10-26T17:06:06.447Z,22.67
2023-10-26T17:08:33.360Z,22.66
2023-10-26T17:11:00.197Z,22.67
2023-10-26T17:13:26.962Z,22.67
2023-10-26T17:15:54.573Z,22.70
2023-10-26T17:18:24.697Z,22.73
2023-10-26T17:20:55.035Z,22.77
2023-10-26T17:23:22.345Z,22.81
2023-10-26T17:25:49.010Z,22.85
2023-10-26T17:28:15.815Z,22.89
2023-10-26T17:30:42.648Z,22.96
2023-10-26T17:33:13.631Z,23.05
2023-10-26T17:35:44.127Z,23.12
2023-10-26T17:38:11.257Z,23.24
2023-10-26T17:40:46.968Z,23.38
2023-10-26T17:43:18.630Z,23.50
2023-10-26T17:45:53.167Z,23.65
2023-10-26T17:48:21.537Z,23.72
2023-10-26T17:50:48.225Z,23.75
2023-10-26T17:53:17.710Z,23.79
2023-10-26T17:55:44.666Z,23.81
2023-10-26T17:58:11.437Z,23.83
2023-10-26T18:00:38.173Z,23.82
2023-10-26T18:03:04.941Z,23.83
2023-10-26T18:05:31.610Z,23.84
2023-10-26T18:07:58.413Z,23.84
2023-10-26T18:10:25.092Z,23.84
2023-10-26T18:12:51.939Z,23.84
2023-10-26T18:15:18.589Z,23.81
2023-10-26T18:17:46.295Z,23.79
2023-10-26T18:20:13.167Z,23.75
2023-10-26T18:22:40.629Z,23.72
2023-10-26T18:25:09.511Z,23.69
2023-10-26T18:27:39.276Z,23.65
2023-10-26T18:30:06.617Z,23.61
2023-10-26T18:32:33.590Z,23.59
2023-10-26T18:35:00.407Z,23.57
2023-10-26T18:37:28.243Z,23.54
2023-10-26T18:39:57.844Z,23.50
2023-10-26T18:42:24.990Z,23.48
2023-10-26T18:44:52.729Z,23.44
2023-10-26T18:47:20.563Z,23.41
2023-10-26T18:49:48.828Z,23.37
2023-10-26T18:52:15.496Z,23.34
2023-10-26T18:54:42.405Z,23.31
2023-10-26T18:57:09.069Z,23.28
2023-10-26T18:59:36.084Z,23.24
2023-10-26T19:02:05.308Z,23.21
2023-10-26T19:04:33.340Z,23.19
2023-10-26T19:07:01.871Z,23.16
2023-10-26T19:09:31.445Z,23.14
2023-10-26T19:11:58.290Z,23.12
2023-10-26T19:14:24.955Z,23.09
2023-10-26T19:16:51.735Z,23.09
2023-10-26T19:19:19.437Z,23.07
2023-10-26T19:21:46.348Z,23.05
2023-10-26T19:24:13.573Z,23.04
2023-10-26T19:26:40.195Z,23.04
2023-10-26T19:29:06.843Z,23.00
2023-10-26T19:31:33.544Z,22.99
2023-10-26T19:34:00.318Z,22.97
2023-10-26T19:36:27.393Z,22.95
2023-10-26T19:38:54.129Z,22.94
2023-10-26T19:41:20.759Z,22.91
2023-10-26T19:43:47.382Z,22.91
2023-10-26T19:46:14.268Z,22.89
2023-10-26T19:48:41.702Z,22.89
2023-10-26T19:51:08.491Z,22.86
2023-10-26T19:53:38.681Z,22.84
2023-10-26T19:56:05.830Z,22.83
2023-10-26T19:58:32.520Z,22.82
2023-10-26T20:00:59.328Z,22.80
2023-10-26T20:03:26.098Z,22.78
2023-10-26T20:05:54.756Z,22.75
2023-10-26T20:08:21.425Z,22.73
2023-10-26T20:10:48.170Z,22.72
2023-10-26T20:13:15.003Z,22.69
2023-10-26T20:15:44.310Z,22.67
2023-10-26T20:18:11.761Z,22.65
2023-10-26T20:20:38.668Z,22.62
2023-10-26T20:23:10.210Z,22.60
2023-10-26T20:25:39.025Z,22.60
2023-10-26T20:28:05.726Z,22.58
2023-10-26T20:30:32.374Z,22.58
2023-10-26T20:32:59.229Z,22.55
2023-10-26T20:35:25.960Z,22.54
2023-10-26T20:37:53.087Z,22.52
2023-10-26T20:40:22.253Z,22.51
2023-10-26T20:42:53.011Z,22.49
2023-10-26T20:45:19.781Z,22.47
2023-10-26T20:47:46.579Z,22.46
2023-10-26T20:50:13.479Z,22.44
2023-10-26T20:52:40.200Z,22.44
2023-10-26T20:55:10.035Z,22.42
2023-10-26T20:57:36.757Z,22.41
2023-10-26T21:00:04.306Z,22.41
2023-10-26T21:02:31.010Z,22.39
2023-10-26T21:05:00.870Z,22.39
2023-10-26T21:07:27.816Z,22.38
2023-10-26T21:09:54.560Z,22.36
2023-10-26T21:12:24.062Z,22.36
2023-10-26T21:14:54.589Z,22.36
2023-10-26T21:17:21.702Z,22.35
2023-10-26T21:19:48.355Z,22.34
2023-10-26T21:22:14.992Z,22.34
2023-10-26T21:24:43.192Z,22.33
2023-10-26T21:27:09.849Z,22.32
2023-10-26T21:29:36.486Z,22.32
2023-10-26T21:32:03.335Z,22.29
2023-10-26T21:34:31.227Z,22.29
2023-10-26T21:36:57.873Z,22.28
2023-10-26T21:39:25.287Z,22.27
2023-10-26T21:41:51.952Z,22.26
2023-10-26T21:44:18.563Z,22.26
2023-10-26T21:46:45.485Z,22.25
2023-10-26T21:49:12.196Z,22.24
2023-10-26T21:51:39.064Z,22.24
2023-10-26T21:54:05.958Z,22.24
2023-10-26T21:56:32.729Z,22.23
2023-10-26T21:58:59.383Z,22.22
2023-10-26T22:01:26.118Z,22.21
2023-10-26T22:04:11.979Z,22.20
2023-10-26T22:06:39.803Z,22.20
2023-10-26T22:09:07.281Z,22.20
2023-10-26T22:11:34.170Z,22.19
2023-10-26T22:14:01.083Z,22.18
2023-10-26T22:16:27.883Z,22.16
2023-10-26T22:18:54.620Z,22.16
2023-10-26T22:21:21.306Z,22.15
2023-10-26T22:23:49.891Z,22.15
2023-10-26T22:26:16.497Z,22.14
2023-10-26T22:28:43.661Z,22.13
2023-10-26T22:31:11.746Z,22.13
2023-10-26T22:33:38.844Z,22.11
2023-10-26T22:36:05.761Z,22.10
2023-10-26T22:38:32.558Z,22.10
2023-10-26T22:40:59.284Z,22.10
2023-10-26T22:43:25.921Z,22.09
2023-10-26T22:45:52.575Z,22.08
2023-10-26T22:48:19.228Z,22.07
2023-10-26T22:50:45.871Z,22.07
2023-10-26T22:53:12.529Z,22.06
2023-10-26T22:55:39.229Z,22.06
2023-10-26T22:58:05.989Z,22.05
2023-10-26T23:00:33.404Z,22.04
2023-10-26T23:03:00.084Z,22.04
2023-10-26T23:05:26.862Z,22.03
2023-10-26T23:07:55.997Z,22.03
2023-10-26T23:10:22.732Z,22.02
2023-10-26T23:12:49.528Z,22.02
2023-10-26T23:15:17.012Z,22.01
2023-10-26T23:17:46.421Z,22.01
2023-10-26T23:20:13.729Z,22.01
2023-10-26T23:22:40.369Z,21.98
2023-10-26T23:25:09.429Z,21.98
2023-10-26T23:27:36.399Z,21.97
2023-10-26T23:30:03.219Z,21.97
2023-10-26T23:32:29.895Z,21.96
2023-10-26T23:34:56.884Z,21.96
2023-10-26T23:37:23.649Z,21.96
2023-10-26T23:39:50.446Z,21.96
2023-10-26T23:42:18.545Z,21.95
2023-10-26T23:44:45.530Z,21.96
2023-10-26T23:47:14.066Z,21.94
2023-10-26T23:49:43.006Z,21.94
2023-10-26T23:52:09.767Z,21.94
2023-10-26T23:54:36.528Z,21.92
2023-10-26T23:57:03.232Z,21.91
2023-10-26T23:59:30.889Z,21.92
